Time;durP1;ratioP1;P1;durP2;ratioP2;P2;SDS_P1;SDS_P2;PMS_P1;PMS_P2;Temp;Humidity;BMP_temperature;BMP_pressure;BME280_temperature;BME280_humidity;BME280_pressure;Samples;Min_cycle;Max_cycle;Signal;HPM_P1;HPM_P2
2022/12/08 00:00:47;;;;;;;17.60;8.00;;;;;;;;;;5013304;28;20049;-69
2022/12/08 00:03:13;;;;;;;12.98;7.85;;;;;;;;;;5011476;28;20064;-69
2022/12/08 00:11:14;;;;;;;15.07;8.30;;;;;;;;;;5009502;28;20049;-69
2022/12/08 00:13:40;;;;;;;19.67;8.80;;;;;;;;;;5014552;28;20465;-69
2022/12/08 00:16:06;;;;;;;19.25;9.27;;;;;;;;;;5010739;28;20026;-70
2022/12/08 00:18:32;;;;;;;14.75;9.43;;;;;;;;;;5013467;28;20030;-69
2022/12/08 00:20:59;;;;;;;13.00;8.85;;;;;;;;;;5014758;28;20038;-69
2022/12/08 00:23:25;;;;;;;17.15;9.30;;;;;;;;;;5011127;28;20050;-69
2022/12/08 00:25:51;;;;;;;15.82;8.90;;;;;;;;;;5014050;28;20180;-69
2022/12/08 00:28:18;;;;;;;13.20;8.63;;;;;;;;;;5009335;28;20048;-69
2022/12/08 00:30:44;;;;;;;16.55;8.27;;;;;;;;;;5011489;28;20407;-70
2022/12/08 00:33:10;;;;;;;13.90;8.32;;;;;;;;;;5012320;28;20046;-70
2022/12/08 00:35:36;;;;;;;17.98;8.18;;;;;;;;;;5009868;28;20102;-70
2022/12/08 00:38:03;;;;;;;13.85;7.55;;;;;;;;;;5011981;28;20057;-71
2022/12/08 00:40:29;;;;;;;14.80;8.35;;;;;;;;;;5011066;28;20129;-69
2022/12/08 00:42:55;;;;;;;10.48;7.22;;;;;;;;;;5016128;28;20037;-69
2022/12/08 00:45:21;;;;;;;13.40;7.95;;;;;;;;;;5012319;28;20099;-69
2022/12/08 00:47:47;;;;;;;14.07;8.00;;;;;;;;;;5006014;28;20108;-69
2022/12/08 00:50:14;;;;;;;12.05;7.25;;;;;;;;;;5011622;28;20080;-69
2022/12/08 00:52:40;;;;;;;11.30;7.10;;;;;;;;;;5011094;28;20041;-69
2022/12/08 00:55:07;;;;;;;8.98;7.38;;;;;;;;;;5011745;28;20037;-69
2022/12/08 00:57:33;;;;;;;9.35;7.25;;;;;;;;;;5014358;28;20044;-70
2022/12/08 00:59:59;;;;;;;14.00;7.22;;;;;;;;;;5013243;28;20057;-69
2022/12/08 01:02:25;;;;;;;9.57;6.88;;;;;;;;;;5007908;28;20037;-71
2022/12/08 01:04:51;;;;;;;12.73;6.55;;;;;;;;;;5008482;28;20025;-71
2022/12/08 01:07:17;;;;;;;11.77;6.03;;;;;;;;;;4992682;28;20033;-70
2022/12/08 01:09:43;;;;;;;14.85;7.78;;;;;;;;;;4995596;28;20117;-70
2022/12/08 01:12:10;;;;;;;7.30;4.20;;;;;;;;;;5002035;28;20057;-70
2022/12/08 01:14:36;;;;;;;5.70;3.42;;;;;;;;;;5017933;28;20124;-70
2022/12/08 01:17:02;;;;;;;8.23;3.45;;;;;;;;;;5011562;28;20045;-72
2022/12/08 01:19:29;;;;;;;4.90;2.83;;;;;;;;;;5011133;28;20034;-70
2022/12/08 01:21:56;;;;;;;5.50;2.90;;;;;;;;;;5026696;28;20034;-70
2022/12/08 01:24:22;;;;;;;6.78;3.38;;;;;;;;;;5008878;28;20124;-71
2022/12/08 01:26:49;;;;;;;4.35;2.97;;;;;;;;;;4992571;28;20037;-70
2022/12/08 01:29:15;;;;;;;6.60;3.22;;;;;;;;;;5009680;28;20378;-70
2022/12/08 01:31:41;;;;;;;5.10;3.22;;;;;;;;;;5011204;28;20104;-71
2022/12/08 01:34:08;;;;;;;8.18;3.55;;;;;;;;;;5006997;28;20123;-70
2022/12/08 01:36:37;;;;;;;7.60;3.35;;;;;;;;;;5010710;28;20033;-70
2022/12/08 01:39:05;;;;;;;13.25;3.70;;;;;;;;;;5009491;28;20522;-70
2022/12/08 01:41:32;;;;;;;7.68;3.03;;;;;;;;;;5010009;28;20400;-70
2022/12/08 01:44:03;;;;;;;9.63;3.40;;;;;;;;;;4992320;28;20395;-70
2022/12/08 01:46:29;;;;;;;;;;;;;;;;;;5021133;28;20028;-70
2022/12/08 01:49:04;;;;;;;5.72;3.60;;;;;;;;;;5003274;28;20293;-71
2022/12/08 01:51:33;;;;;;;9.43;4.40;;;;;;;;;;5009355;28;20038;-71
2022/12/08 01:53:59;;;;;;;12.80;7.30;;;;;;;;;;5008701;28;20034;-71
2022/12/08 01:56:27;;;;;;;12.60;8.45;;;;;;;;;;5007678;28;20073;-72
2022/12/08 01:58:55;;;;;;;14.02;9.27;;;;;;;;;;5010085;28;20046;-71
2022/12/08 02:01:21;;;;;;;20.63;10.52;;;;;;;;;;5009926;28;20041;-71
2022/12/08 02:03:51;;;;;;;17.13;10.63;;;;;;;;;;5009281;28;20088;-70
2022/12/08 02:06:18;;;;;;;17.63;11.70;;;;;;;;;;5010232;28;20120;-71
2022/12/08 02:08:45;;;;;;;22.13;12.65;;;;;;;;;;5008596;28;20026;-71
2022/12/08 02:11:12;;;;;;;19.38;13.75;;;;;;;;;;5011178;28;20030;-71
2022/12/08 02:13:39;;;;;;;21.02;13.90;;;;;;;;;;5008890;28;20168;-71
2022/12/08 02:16:14;;;;;;;26.42;14.52;;;;;;;;;;5011728;28;20034;-71
2022/12/08 02:19:00;;;;;;;23.45;15.52;;;;;;;;;;4988357;28;20058;-71
2022/12/08 02:21:36;;;;;;;28.30;15.73;;;;;;;;;;5009034;28;20038;-71
2022/12/08 02:24:14;;;;;;;24.95;15.20;;;;;;;;;;5008222;28;20033;-71
2022/12/08 02:26:55;;;;;;;21.73;13.73;;;;;;;;;;4991334;28;20072;-72
2022/12/08 02:29:31;;;;;;;24.02;14.52;;;;;;;;;;5009479;28;20064;-72
2022/12/08 02:32:00;;;;;;;34.97;17.95;;;;;;;;;;5008740;28;20073;-71
2022/12/08 02:35:05;;;;;;;26.23;16.40;;;;;;;;;;5008785;28;20084;-71
2022/12/08 02:37:34;;;;;;;23.75;15.93;;;;;;;;;;4949515;29;20094;-71
2022/12/08 02:40:00;;;;;;;27.05;16.35;;;;;;;;;;4947854;28;20118;-71
2022/12/08 02:42:37;;;;;;;27.85;16.00;;;;;;;;;;4977299;28;20049;-71
2022/12/08 02:45:08;;;;;;;30.85;16.05;;;;;;;;;;5008327;28;20038;-71
2022/12/08 02:47:34;;;;;;;23.92;15.70;;;;;;;;;;5014103;28;20033;-72
2022/12/08 02:50:01;;;;;;;21.00;14.57;;;;;;;;;;4994678;28;20050;-71
2022/12/08 02:52:28;;;;;;;26.52;14.40;;;;;;;;;;4992619;28;20029;-72
2022/12/08 02:55:06;;;;;;;22.45;13.60;;;;;;;;;;4997537;28;20132;-71
2022/12/08 02:57:50;;;;;;;18.83;11.70;;;;;;;;;;5014206;28;20084;-71
2022/12/08 03:00:17;;;;;;;21.25;11.75;;;;;;;;;;5011876;28;20038;-71
2022/12/08 03:02:55;;;;;;;17.38;10.20;;;;;;;;;;5013746;28;20513;-70
2022/12/08 03:05:28;;;;;;;24.08;10.90;;;;;;;;;;5012685;28;20026;-70
2022/12/08 03:07:57;;;;;;;17.60;9.55;;;;;;;;;;4995651;28;20426;-70
2022/12/08 03:10:29;;;;;;;17.23;9.65;;;;;;;;;;5012943;28;20104;-71
2022/12/08 03:13:07;;;;;;;16.27;8.70;;;;;;;;;;5013959;28;20026;-71
2022/12/08 03:15:35;;;;;;;15.07;8.25;;;;;;;;;;5014679;28;20040;-75
2022/12/08 03:18:01;;;;;;;17.23;7.93;;;;;;;;;;5011595;28;20044;-71
2022/12/08 03:20:28;;;;;;;16.80;8.23;;;;;;;;;;4996211;28;20103;-73
2022/12/08 03:22:55;;;;;;;16.25;8.07;;;;;;;;;;5012412;28;20113;-72
2022/12/08 03:25:23;;;;;;;15.52;7.50;;;;;;;;;;5013313;28;20843;-72
2022/12/08 03:27:50;;;;;;;14.32;5.90;;;;;;;;;;5013893;28;20026;-71
2022/12/08 03:30:16;;;;;;;11.85;4.90;;;;;;;;;;5003536;28;20092;-71
2022/12/08 03:32:51;;;;;;;16.52;4.13;;;;;;;;;;5010171;28;20037;-71
2022/12/08 03:35:22;;;;;;;11.85;4.32;;;;;;;;;;5014886;28;20514;-72
2022/12/08 03:37:48;;;;;;;9.88;2.50;;;;;;;;;;5013733;28;20080;-70
2022/12/08 03:40:16;;;;;;;7.95;3.05;;;;;;;;;;5017040;28;20076;-71
2022/12/08 03:42:42;;;;;;;11.00;2.05;;;;;;;;;;4998772;28;20057;-71
2022/12/08 03:45:09;;;;;;;5.68;2.08;;;;;;;;;;5012855;28;20030;-71
2022/12/08 03:47:35;;;;;;;9.55;2.28;;;;;;;;;;5018660;28;20025;-72
2022/12/08 03:50:01;;;;;;;5.68;2.30;;;;;;;;;;5014996;28;20033;-72
2022/12/08 03:52:27;;;;;;;7.07;1.73;;;;;;;;;;5012798;28;20036;-72
2022/12/08 03:54:53;;;;;;;6.45;1.48;;;;;;;;;;5010723;28;20038;-72
2022/12/08 03:57:20;;;;;;;4.68;1.35;;;;;;;;;;4995956;28;20113;-72
2022/12/08 03:59:46;;;;;;;9.63;2.28;;;;;;;;;;5010993;28;20058;-72
2022/12/08 04:02:12;;;;;;;5.82;1.13;;;;;;;;;;5011828;28;20065;-70
2022/12/08 04:04:38;;;;;;;10.50;1.17;;;;;;;;;;5024291;28;20049;-72
2022/12/08 04:07:05;;;;;;;7.47;1.38;;;;;;;;;;5016472;28;20022;-70
2022/12/08 04:09:31;;;;;;;5.57;1.20;;;;;;;;;;4995409;28;20163;-71
2022/12/08 04:11:57;;;;;;;3.20;1.10;;;;;;;;;;5011814;28;20045;-72
2022/12/08 04:14:23;;;;;;;6.05;1.10;;;;;;;;;;5012231;28;20116;-71
2022/12/08 04:16:49;;;;;;;5.30;1.20;;;;;;;;;;5011975;28;20095;-71
2022/12/08 04:19:16;;;;;;;5.15;1.30;;;;;;;;;;5018322;28;20030;-71
2022/12/08 04:21:42;;;;;;;8.07;1.63;;;;;;;;;;5013732;28;20034;-71
2022/12/08 04:24:08;;;;;;;15.48;1.85;;;;;;;;;;5009496;28;20026;-71
2022/12/08 04:26:34;;;;;;;11.95;2.33;;;;;;;;;;5012554;28;20077;-72
2022/12/08 04:29:00;;;;;;;6.57;1.90;;;;;;;;;;5009238;28;20034;-69
2022/12/08 04:31:27;;;;;;;7.32;2.20;;;;;;;;;;5010910;28;20061;-70
2022/12/08 04:33:53;;;;;;;7.68;1.65;;;;;;;;;;5012933;28;20046;-70
2022/12/08 04:36:19;;;;;;;6.95;2.17;;;;;;;;;;5000243;28;20064;-70
2022/12/08 04:38:45;;;;;;;9.45;2.05;;;;;;;;;;5002817;28;20022;-71
2022/12/08 04:41:11;;;;;;;8.43;1.45;;;;;;;;;;5005010;28;20057;-71
2022/12/08 04:43:37;;;;;;;9.95;1.30;;;;;;;;;;5010258;28;20026;-72
2022/12/08 04:46:07;;;;;;;7.68;1.20;;;;;;;;;;4998454;28;20022;-73
2022/12/08 04:48:34;;;;;;;5.80;1.00;;;;;;;;;;5013564;28;20017;-73
2022/12/08 04:51:00;;;;;;;11.10;1.00;;;;;;;;;;5011820;28;20100;-71
2022/12/08 04:53:26;;;;;;;6.22;1.20;;;;;;;;;;4991346;28;20746;-73
2022/12/08 04:55:52;;;;;;;5.65;1.08;;;;;;;;;;4994294;28;20034;-72
2022/12/08 04:58:19;;;;;;;5.50;1.02;;;;;;;;;;5025949;28;20125;-73
2022/12/08 05:00:45;;;;;;;5.43;0.95;;;;;;;;;;5018261;28;20049;-74
2022/12/08 05:03:12;;;;;;;7.15;0.90;;;;;;;;;;5006505;28;21723;-73
2022/12/08 05:05:38;;;;;;;10.93;1.20;;;;;;;;;;5010409;28;20041;-74
2022/12/08 05:08:05;;;;;;;5.85;2.55;;;;;;;;;;5010597;28;20033;-73
2022/12/08 05:10:32;;;;;;;8.35;2.85;;;;;;;;;;5010927;28;20038;-73
2022/12/08 05:12:58;;;;;;;10.43;2.97;;;;;;;;;;5010362;28;20026;-72
2022/12/08 05:15:24;;;;;;;4.55;1.75;;;;;;;;;;5026815;28;20152;-72
2022/12/08 05:17:51;;;;;;;7.30;1.85;;;;;;;;;;5010453;28;20128;-73
2022/12/08 05:20:17;;;;;;;4.53;1.77;;;;;;;;;;5004081;28;20026;-72
2022/12/08 05:22:43;;;;;;;7.95;2.00;;;;;;;;;;5024348;28;20033;-72
2022/12/08 05:25:09;;;;;;;9.20;2.35;;;;;;;;;;5011302;28;20113;-72
2022/12/08 05:27:36;;;;;;;7.65;2.95;;;;;;;;;;5011141;28;20290;-72
2022/12/08 05:30:02;;;;;;;8.65;3.22;;;;;;;;;;5009895;28;20025;-70
2022/12/08 05:32:28;;;;;;;6.32;2.72;;;;;;;;;;4993873;28;20092;-70
2022/12/08 05:34:54;;;;;;;9.07;2.47;;;;;;;;;;5009859;28;20069;-70
2022/12/08 05:37:20;;;;;;;4.45;2.17;;;;;;;;;;5009347;28;20060;-71
2022/12/08 05:39:46;;;;;;;3.38;1.90;;;;;;;;;;5010463;28;20038;-71
2022/12/08 05:42:12;;;;;;;3.30;1.73;;;;;;;;;;5010948;28;20081;-71
2022/12/08 05:44:38;;;;;;;4.25;1.60;;;;;;;;;;5010142;28;20054;-71
2022/12/08 05:47:05;;;;;;;8.63;2.85;;;;;;;;;;5010193;28;20678;-71
2022/12/08 05:49:31;;;;;;;5.20;2.30;;;;;;;;;;5010344;28;20522;-71
2022/12/08 05:51:57;;;;;;;3.50;1.52;;;;;;;;;;5011180;28;20061;-71
2022/12/08 05:54:23;;;;;;;5.97;1.60;;;;;;;;;;5009296;28;20060;-71
2022/12/08 05:56:49;;;;;;;6.18;1.45;;;;;;;;;;4987410;28;20034;-70
2022/12/08 05:59:15;;;;;;;5.15;1.85;;;;;;;;;;5005616;28;20088;-70
2022/12/08 06:01:42;;;;;;;5.93;1.30;;;;;;;;;;5007510;28;20033;-71
2022/12/08 06:04:08;;;;;;;3.60;1.30;;;;;;;;;;5009906;28;20477;-71
2022/12/08 06:06:35;;;;;;;5.05;1.35;;;;;;;;;;5006846;28;20123;-71
2022/12/08 06:09:04;;;;;;;4.95;1.20;;;;;;;;;;5004374;28;20053;-71
2022/12/08 06:11:31;;;;;;;2.67;1.77;;;;;;;;;;4998898;28;20053;-71
2022/12/08 06:13:58;;;;;;;4.00;1.45;;;;;;;;;;5007275;28;20137;-71
2022/12/08 06:16:27;;;;;;;4.35;1.70;;;;;;;;;;5003671;28;20033;-71
2022/12/08 06:18:54;;;;;;;6.03;1.33;;;;;;;;;;5005334;28;20033;-71
2022/12/08 06:21:20;;;;;;;7.57;1.90;;;;;;;;;;5006138;28;20562;-72
2022/12/08 06:23:50;;;;;;;9.43;4.20;;;;;;;;;;5012392;28;20117;-70
2022/12/08 06:26:17;;;;;;;7.13;4.65;;;;;;;;;;5016296;28;20034;-72
2022/12/08 06:28:43;;;;;;;11.38;5.82;;;;;;;;;;5007685;28;20483;-70
2022/12/08 06:31:17;;;;;;;14.60;6.63;;;;;;;;;;5010774;28;20018;-70
2022/12/08 06:33:43;;;;;;;12.55;5.88;;;;;;;;;;5005918;28;20571;-70
2022/12/08 06:36:11;;;;;;;9.85;4.97;;;;;;;;;;5009048;28;20034;-73
2022/12/08 06:38:37;;;;;;;8.82;4.20;;;;;;;;;;5009615;28;20105;-70
2022/12/08 06:41:04;;;;;;;11.13;4.40;;;;;;;;;;5006668;28;20037;-72
2022/12/08 06:43:32;;;;;;;4.57;2.78;;;;;;;;;;5008642;28;20038;-71
2022/12/08 06:45:58;;;;;;;5.30;2.25;;;;;;;;;;5007801;28;20022;-72
2022/12/08 06:48:24;;;;;;;3.83;1.90;;;;;;;;;;5011737;28;20034;-73
2022/12/08 06:50:50;;;;;;;2.65;1.60;;;;;;;;;;5000900;28;20144;-72
2022/12/08 06:53:16;;;;;;;4.25;1.60;;;;;;;;;;5010034;28;20034;-72
2022/12/08 06:55:46;;;;;;;3.08;1.35;;;;;;;;;;5009302;28;20038;-72
2022/12/08 06:58:13;;;;;;;2.47;1.27;;;;;;;;;;5003291;28;20018;-72
2022/12/08 07:00:39;;;;;;;2.78;1.23;;;;;;;;;;5005779;28;20050;-73
2022/12/08 07:03:07;;;;;;;2.60;1.00;;;;;;;;;;5006152;28;20490;-74
2022/12/08 07:05:33;;;;;;;4.82;1.20;;;;;;;;;;5013120;28;20041;-71
2022/12/08 07:07:59;;;;;;;4.00;1.20;;;;;;;;;;5001502;28;20046;-71
2022/12/08 07:10:25;;;;;;;4.72;1.02;;;;;;;;;;5009310;28;20034;-71
2022/12/08 07:12:51;;;;;;;3.45;1.13;;;;;;;;;;5010358;28;20041;-71
2022/12/08 07:15:18;;;;;;;2.35;0.90;;;;;;;;;;5014253;28;20030;-70
2022/12/08 07:17:44;;;;;;;2.10;0.82;;;;;;;;;;5013320;28;20034;-71
2022/12/08 07:20:10;;;;;;;3.15;0.98;;;;;;;;;;5007463;28;20424;-71
2022/12/08 07:22:36;;;;;;;3.05;0.88;;;;;;;;;;5009365;28;20085;-72
2022/12/08 07:25:03;;;;;;;2.28;0.93;;;;;;;;;;5013200;28;20026;-71
2022/12/08 07:27:29;;;;;;;1.77;0.90;;;;;;;;;;5014473;28;20441;-71
2022/12/08 07:29:55;;;;;;;2.15;0.90;;;;;;;;;;5011564;28;20037;-71
2022/12/08 07:32:21;;;;;;;3.05;0.98;;;;;;;;;;5015122;28;20120;-72
2022/12/08 07:34:47;;;;;;;4.10;1.10;;;;;;;;;;5011536;28;20021;-72
2022/12/08 07:37:13;;;;;;;5.72;2.05;;;;;;;;;;5009455;28;20045;-71
2022/12/08 07:39:40;;;;;;;2.35;1.15;;;;;;;;;;4987289;28;20046;-71
2022/12/08 07:42:06;;;;;;;3.15;1.40;;;;;;;;;;4990105;28;20045;-72
2022/12/08 07:44:32;;;;;;;6.00;1.52;;;;;;;;;;5010125;28;20018;-71
2022/12/08 07:46:58;;;;;;;5.60;1.77;;;;;;;;;;5009238;28;20036;-71
2022/12/08 07:49:24;;;;;;;3.03;1.50;;;;;;;;;;4993257;28;20034;-71
2022/12/08 07:51:50;;;;;;;2.97;1.58;;;;;;;;;;5007873;28;20045;-70
2022/12/08 07:54:17;;;;;;;3.63;1.50;;;;;;;;;;5004914;28;20030;-70
2022/12/08 07:56:43;;;;;;;4.18;1.75;;;;;;;;;;5007021;28;20025;-71
2022/12/08 07:59:09;;;;;;;4.10;1.95;;;;;;;;;;5022406;28;20030;-70
2022/12/08 08:01:35;;;;;;;6.45;2.05;;;;;;;;;;5006827;28;20118;-70
2022/12/08 08:04:05;;;;;;;4.95;2.15;;;;;;;;;;4997674;28;20491;-71
2022/12/08 08:06:33;;;;;;;3.83;2.50;;;;;;;;;;4992591;28;20030;-70
2022/12/08 08:08:59;;;;;;;6.78;2.28;;;;;;;;;;5007367;28;20100;-70
2022/12/08 08:11:25;;;;;;;4.15;2.28;;;;;;;;;;5008136;28;20129;-70
2022/12/08 08:13:51;;;;;;;5.03;2.00;;;;;;;;;;5008202;28;20026;-70
2022/12/08 08:16:18;;;;;;;3.72;1.98;;;;;;;;;;5008390;28;20026;-71
2022/12/08 08:18:46;;;;;;;8.13;2.10;;;;;;;;;;4994277;28;20121;-70
2022/12/08 08:21:12;;;;;;;5.43;2.40;;;;;;;;;;5005833;28;20539;-70
2022/12/08 08:23:38;;;;;;;3.97;2.58;;;;;;;;;;5005510;28;20117;-70
2022/12/08 08:26:04;;;;;;;3.17;2.00;;;;;;;;;;5003526;28;20030;-70
2022/12/08 08:28:31;;;;;;;7.85;2.53;;;;;;;;;;5004496;28;20144;-71
2022/12/08 08:30:58;;;;;;;4.10;1.95;;;;;;;;;;5002115;28;20522;-70
2022/12/08 08:33:26;;;;;;;5.30;2.40;;;;;;;;;;5005637;28;20068;-71
2022/12/08 08:35:52;;;;;;;4.00;2.20;;;;;;;;;;5007071;28;20040;-71
2022/12/08 08:38:18;;;;;;;7.75;2.90;;;;;;;;;;5007433;28;20061;-71
2022/12/08 08:40:44;;;;;;;4.63;2.92;;;;;;;;;;5009664;28;20112;-71
2022/12/08 08:43:27;;;;;;;5.72;2.53;;;;;;;;;;5006849;28;20030;-70
2022/12/08 08:46:00;;;;;;;6.85;3.03;;;;;;;;;;5006486;28;20030;-71
2022/12/08 08:48:26;;;;;;;8.30;2.47;;;;;;;;;;5006550;28;20032;-71
2022/12/08 08:50:52;;;;;;;5.53;2.90;;;;;;;;;;4997067;28;20085;-71
2022/12/08 08:53:19;;;;;;;9.52;2.90;;;;;;;;;;5008094;28;20064;-70
2022/12/08 08:55:45;;;;;;;5.13;3.10;;;;;;;;;;5030046;28;20100;-71
2022/12/08 08:58:11;;;;;;;5.38;3.28;;;;;;;;;;5014086;28;20030;-71
2022/12/08 09:00:37;;;;;;;5.78;3.33;;;;;;;;;;5004437;28;20049;-70
2022/12/08 09:03:04;;;;;;;7.75;4.00;;;;;;;;;;5006835;28;20021;-70
2022/12/08 09:05:30;;;;;;;7.70;3.97;;;;;;;;;;5006690;28;20113;-70
2022/12/08 09:07:56;;;;;;;12.43;3.58;;;;;;;;;;5006069;28;20125;-71
2022/12/08 09:10:22;;;;;;;6.22;3.45;;;;;;;;;;5006614;28;20076;-71
2022/12/08 09:12:48;;;;;;;9.70;3.88;;;;;;;;;;5007039;28;20034;-71
2022/12/08 09:15:14;;;;;;;10.02;4.50;;;;;;;;;;5008954;28;20109;-71
2022/12/08 09:17:41;;;;;;;5.45;3.70;;;;;;;;;;4991204;28;20120;-71
2022/12/08 09:20:07;;;;;;;8.07;4.05;;;;;;;;;;5006310;28;20026;-72
2022/12/08 09:22:34;;;;;;;9.90;3.45;;;;;;;;;;5006608;28;20032;-71
2022/12/08 09:25:00;;;;;;;6.25;3.35;;;;;;;;;;5001807;28;20086;-71
2022/12/08 09:27:26;;;;;;;10.00;3.35;;;;;;;;;;5004851;28;20083;-71
2022/12/08 09:29:52;;;;;;;6.45;2.50;;;;;;;;;;5006220;28;20034;-72
2022/12/08 09:32:18;;;;;;;3.17;1.70;;;;;;;;;;4989320;28;20029;-70
2022/12/08 09:34:45;;;;;;;4.05;1.58;;;;;;;;;;5005293;28;20053;-71
2022/12/08 09:37:11;;;;;;;3.38;1.77;;;;;;;;;;5006345;28;20470;-71
2022/12/08 09:39:37;;;;;;;4.18;1.90;;;;;;;;;;5003551;28;20038;-71
2022/12/08 09:42:06;;;;;;;3.22;1.50;;;;;;;;;;5005955;28;20052;-70
2022/12/08 09:44:45;;;;;;;5.07;1.35;;;;;;;;;;5004357;28;20060;-70
2022/12/08 09:47:17;;;;;;;2.65;1.10;;;;;;;;;;5005159;28;20042;-71
2022/12/08 09:49:47;;;;;;;3.33;1.23;;;;;;;;;;5006450;28;20117;-71
2022/12/08 09:52:20;;;;;;;5.13;1.27;;;;;;;;;;5004417;28;20041;-71
2022/12/08 09:54:46;;;;;;;3.03;1.40;;;;;;;;;;5007117;28;20045;-71
2022/12/08 09:57:14;;;;;;;3.17;1.20;;;;;;;;;;4994748;28;20395;-71
2022/12/08 09:59:44;;;;;;;4.65;1.17;;;;;;;;;;5003020;28;20060;-72
2022/12/08 10:02:19;;;;;;;2.80;1.15;;;;;;;;;;5002564;28;20092;-71
2022/12/08 10:04:45;;;;;;;6.70;1.17;;;;;;;;;;5006468;28;20439;-71
2022/12/08 10:07:26;;;;;;;3.03;1.02;;;;;;;;;;4998205;28;20042;-71
2022/12/08 10:10:07;;;;;;;3.58;1.30;;;;;;;;;;5003393;28;20026;-71
2022/12/08 10:12:42;;;;;;;4.20;1.60;;;;;;;;;;5005461;28;20510;-71
2022/12/08 10:15:08;;;;;;;4.60;1.52;;;;;;;;;;5005749;28;20056;-71
2022/12/08 10:17:37;;;;;;;5.93;1.45;;;;;;;;;;4995741;28;20030;-71
2022/12/08 10:20:11;;;;;;;3.13;1.30;;;;;;;;;;5006287;28;20390;-71
2022/12/08 10:22:37;;;;;;;4.20;1.88;;;;;;;;;;5004090;28;20045;-72
2022/12/08 10:25:11;;;;;;;4.53;2.63;;;;;;;;;;4999191;28;20034;-72
2022/12/08 10:27:37;;;;;;;6.53;3.80;;;;;;;;;;5002351;28;20089;-72
2022/12/08 10:30:12;;;;;;;7.18;3.45;;;;;;;;;;4995816;28;20235;-71
2022/12/08 10:32:38;;;;;;;9.05;3.95;;;;;;;;;;5005677;28;20029;-71
2022/12/08 10:35:10;;;;;;;8.25;4.35;;;;;;;;;;5004973;28;20490;-71
2022/12/08 10:37:37;;;;;;;9.02;5.20;;;;;;;;;;5004234;28;20018;-71
2022/12/08 10:40:03;;;;;;;12.20;6.95;;;;;;;;;;5005068;28;20044;-71
2022/12/08 10:42:37;;;;;;;10.82;7.30;;;;;;;;;;5004580;28;20026;-70
2022/12/08 10:45:09;;;;;;;12.35;7.75;;;;;;;;;;5002782;28;20125;-70
2022/12/08 10:47:37;;;;;;;15.88;8.07;;;;;;;;;;5001582;28;20227;-70
2022/12/08 10:50:16;;;;;;;13.63;8.13;;;;;;;;;;5004354;28;20169;-71
2022/12/08 10:52:42;;;;;;;10.30;7.53;;;;;;;;;;5005319;28;20037;-71
2022/12/08 10:55:18;;;;;;;11.13;6.68;;;;;;;;;;5005647;28;20029;-71
2022/12/08 10:57:45;;;;;;;13.13;7.07;;;;;;;;;;5004691;28;20438;-71
2022/12/08 11:00:21;;;;;;;12.60;7.95;;;;;;;;;;5003908;28;20096;-72
2022/12/08 11:02:52;;;;;;;12.15;6.20;;;;;;;;;;5005006;28;20030;-70
2022/12/08 11:05:18;;;;;;;;;;;;;;;;;;5005461;28;20045;-70
2022/12/08 11:07:49;;;;;;;14.38;6.55;;;;;;;;;;5008461;28;19917;-69
2022/12/08 11:10:19;;;;;;;10.00;5.97;;;;;;;;;;5007860;28;20483;-70
2022/12/08 11:12:45;;;;;;;8.43;5.43;;;;;;;;;;5008222;28;20092;-69
2022/12/08 11:15:18;;;;;;;12.85;4.68;;;;;;;;;;5007188;28;20041;-70
2022/12/08 11:17:48;;;;;;;10.68;4.40;;;;;;;;;;5008097;28;20095;-69
2022/12/08 11:20:14;;;;;;;7.63;4.25;;;;;;;;;;5003378;28;20045;-70
2022/12/08 11:22:41;;;;;;;10.68;5.43;;;;;;;;;;5008373;28;20060;-69
2022/12/08 11:25:11;;;;;;;7.80;3.85;;;;;;;;;;5006466;28;20092;-69
2022/12/08 11:27:38;;;;;;;8.80;4.15;;;;;;;;;;5007979;28;20049;-69
2022/12/08 11:30:13;;;;;;;6.82;4.18;;;;;;;;;;5008530;28;20026;-69
2022/12/08 11:32:46;;;;;;;7.10;5.18;;;;;;;;;;5007204;28;20033;-69
2022/12/08 11:35:33;;;;;;;7.55;4.75;;;;;;;;;;5005524;28;20030;-69
2022/12/08 11:38:04;;;;;;;14.32;4.95;;;;;;;;;;4998028;28;20116;-69
2022/12/08 11:40:37;;;;;;;6.57;4.18;;;;;;;;;;5007467;28;20131;-70
2022/12/08 11:43:16;;;;;;;7.18;3.78;;;;;;;;;;5007015;28;20040;-70
2022/12/08 11:45:42;;;;;;;9.55;4.15;;;;;;;;;;5007116;28;20029;-70
2022/12/08 11:48:19;;;;;;;7.35;4.55;;;;;;;;;;5007529;28;20426;-70
2022/12/08 11:50:47;;;;;;;7.80;5.15;;;;;;;;;;5009395;28;20526;-70
2022/12/08 11:53:17;;;;;;;9.20;5.25;;;;;;;;;;5021524;28;20087;-69
2022/12/08 11:55:45;;;;;;;8.65;5.22;;;;;;;;;;5021836;28;20033;-69
2022/12/08 11:58:16;;;;;;;9.15;5.82;;;;;;;;;;5005965;28;20052;-69
2022/12/08 12:00:42;;;;;;;7.55;5.68;;;;;;;;;;5006276;28;20042;-69
2022/12/08 12:03:14;;;;;;;8.45;5.35;;;;;;;;;;5007184;28;20026;-69
2022/12/08 12:05:59;;;;;;;7.35;5.57;;;;;;;;;;5005765;28;22138;-70
2022/12/08 12:08:49;;;;;;;6.80;5.30;;;;;;;;;;5007551;28;20038;-69
2022/12/08 12:14:30;;;;;;;10.52;5.65;;;;;;;;;;5005265;28;20088;-69
2022/12/08 12:17:07;;;;;;;7.50;5.53;;;;;;;;;;5003014;28;20049;-69
2022/12/08 12:19:36;;;;;;;8.93;6.32;;;;;;;;;;5004567;28;20117;-69
2022/12/08 12:22:11;;;;;;;9.77;6.47;;;;;;;;;;5007860;28;20103;-69
2022/12/08 12:24:38;;;;;;;7.85;6.10;;;;;;;;;;5009579;28;20030;-70
2022/12/08 12:27:07;;;;;;;9.07;6.05;;;;;;;;;;4998229;28;20096;-69
2022/12/08 12:29:35;;;;;;;6.65;5.20;;;;;;;;;;5007380;28;20030;-69
2022/12/08 12:32:03;;;;;;;6.40;4.50;;;;;;;;;;4995822;28;20133;-69
2022/12/08 12:34:34;;;;;;;5.68;3.90;;;;;;;;;;5010081;28;20064;-69
2022/12/08 12:37:09;;;;;;;5.95;3.85;;;;;;;;;;5008089;28;20033;-69
2022/12/08 12:40:07;;;;;;;6.57;4.22;;;;;;;;;;5006817;28;20030;-69
2022/12/08 12:42:44;;;;;;;6.25;4.07;;;;;;;;;;4975891;28;20705;-69
2022/12/08 12:45:16;;;;;;;5.60;3.70;;;;;;;;;;5007711;28;20042;-70
2022/12/08 12:48:06;;;;;;;4.57;3.85;;;;;;;;;;5007586;28;20026;-69
2022/12/08 12:50:37;;;;;;;4.75;4.00;;;;;;;;;;5003685;28;20046;-70
2022/12/08 12:53:04;;;;;;;7.25;4.72;;;;;;;;;;5007420;28;20084;-69
2022/12/08 12:55:46;;;;;;;8.98;5.18;;;;;;;;;;5008016;28;20032;-70
2022/12/08 12:58:28;;;;;;;9.73;5.50;;;;;;;;;;5008263;28;20022;-70
2022/12/08 13:01:12;;;;;;;5.88;4.55;;;;;;;;;;5007875;28;20038;-69
2022/12/08 13:03:40;;;;;;;6.32;4.72;;;;;;;;;;5008990;28;20033;-69
2022/12/08 13:06:06;;;;;;;6.32;3.78;;;;;;;;;;5010292;28;20033;-70
2022/12/08 13:08:32;;;;;;;6.10;3.67;;;;;;;;;;5011509;28;20022;-69
2022/12/08 13:11:03;;;;;;;6.38;3.63;;;;;;;;;;4993702;28;20045;-71
2022/12/08 13:13:29;;;;;;;;;;;;;;;;;;5006674;28;20033;-68
2022/12/08 13:15:59;;;;;;;4.93;3.80;;;;;;;;;;5007897;28;19956;-71
2022/12/08 13:18:45;;;;;;;6.07;4.05;;;;;;;;;;5007159;28;20034;-71
2022/12/08 13:21:17;;;;;;;5.03;4.20;;;;;;;;;;5005492;28;20125;-70
2022/12/08 13:23:46;;;;;;;6.60;4.20;;;;;;;;;;5005034;28;20026;-71
2022/12/08 13:26:17;;;;;;;6.18;4.38;;;;;;;;;;5008937;28;20018;-71
2022/12/08 13:29:02;;;;;;;5.18;4.40;;;;;;;;;;5004039;28;20505;-71
2022/12/08 13:31:34;;;;;;;5.05;4.30;;;;;;;;;;5005683;28;20078;-71
2022/12/08 13:34:03;;;;;;;5.57;4.60;;;;;;;;;;5008101;28;20041;-70
2022/12/08 13:36:36;;;;;;;5.70;4.45;;;;;;;;;;5005179;28;20041;-71
2022/12/08 13:39:04;;;;;;;7.63;4.88;;;;;;;;;;5007752;28;20046;-70
2022/12/08 13:41:38;;;;;;;5.80;4.80;;;;;;;;;;5002335;28;20041;-70
2022/12/08 13:44:12;;;;;;;6.22;4.53;;;;;;;;;;5008850;28;20037;-70
2022/12/08 13:46:45;;;;;;;8.05;4.50;;;;;;;;;;5005415;28;20041;-70
2022/12/08 13:49:15;;;;;;;4.70;3.95;;;;;;;;;;5005089;28;20521;-71
2022/12/08 13:51:43;;;;;;;6.05;4.53;;;;;;;;;;5006784;28;20033;-70
2022/12/08 13:54:12;;;;;;;12.20;5.30;;;;;;;;;;5004447;28;20080;-71
2022/12/08 13:56:42;;;;;;;6.28;4.28;;;;;;;;;;5008561;28;20033;-70
2022/12/08 13:59:10;;;;;;;5.15;4.28;;;;;;;;;;5007790;28;20380;-70
2022/12/08 14:01:42;;;;;;;5.10;4.25;;;;;;;;;;5004988;28;20038;-70
2022/12/08 14:04:19;;;;;;;5.75;4.45;;;;;;;;;;4992849;28;20026;-70
2022/12/08 14:06:48;;;;;;;5.40;3.25;;;;;;;;;;4995483;28;20048;-69
2022/12/08 14:09:18;;;;;;;6.38;3.10;;;;;;;;;;5015309;28;20109;-69
2022/12/08 14:11:54;;;;;;;3.90;2.10;;;;;;;;;;5006645;28;20176;-70
2022/12/08 14:14:26;;;;;;;2.55;1.70;;;;;;;;;;5007704;28;20045;-69
2022/12/08 14:16:56;;;;;;;3.67;1.90;;;;;;;;;;5010573;28;20162;-69
2022/12/08 14:19:24;;;;;;;5.03;1.58;;;;;;;;;;5005702;28;20033;-70
2022/12/08 14:21:56;;;;;;;3.15;1.48;;;;;;;;;;5005888;28;20029;-69
2022/12/08 14:24:23;;;;;;;3.00;1.88;;;;;;;;;;5003497;28;20030;-70
2022/12/08 14:26:50;;;;;;;4.63;1.70;;;;;;;;;;4992962;28;20467;-68
2022/12/08 14:29:35;;;;;;;3.22;1.83;;;;;;;;;;5004776;28;20116;-70
2022/12/08 14:32:01;;;;;;;3.90;1.92;;;;;;;;;;5006696;28;20030;-69
2022/12/08 14:34:27;;;;;;;5.93;2.13;;;;;;;;;;4998135;28;20034;-69
2022/12/08 14:36:54;;;;;;;3.75;2.63;;;;;;;;;;5006710;28;20132;-70
2022/12/08 14:39:20;;;;;;;4.22;1.92;;;;;;;;;;5006061;28;20034;-69
2022/12/08 14:41:59;;;;;;;10.50;2.08;;;;;;;;;;5007132;28;20125;-70
2022/12/08 14:44:29;;;;;;;7.40;2.17;;;;;;;;;;5012049;28;20474;-69
2022/12/08 14:47:03;;;;;;;5.28;2.30;;;;;;;;;;5012685;28;20627;-69
2022/12/08 14:49:34;;;;;;;5.57;3.20;;;;;;;;;;5014524;28;20030;-69
2022/12/08 14:52:01;;;;;;;7.18;3.13;;;;;;;;;;4996654;28;20052;-69
2022/12/08 14:54:29;;;;;;;6.55;4.20;;;;;;;;;;5011700;28;20038;-69
2022/12/08 14:56:56;;;;;;;16.52;6.03;;;;;;;;;;5013652;28;20033;-70